createdAt,value
2023-04-23T00:01:59.660Z,98572.45
2023-04-23T00:04:33.957Z,98569.70
2023-04-23T00:07:05.701Z,98567.77
2023-04-23T00:09:37.045Z,98569.20
2023-04-23T00:12:09.002Z,98569.85
2023-04-23T00:14:40.999Z,98572.50
2023-04-23T00:17:12.315Z,98571.04
2023-04-23T00:19:43.004Z,98565.77
2023-04-23T00:22:14.841Z,98567.95
2023-04-23T00:24:45.518Z,98564.80
2023-04-23T00:27:18.089Z,98562.55
2023-04-23T00:29:48.857Z,98562.55
2023-04-23T00:32:19.562Z,98557.71
2023-04-23T00:34:50.912Z,98556.21
2023-04-23T00:37:22.177Z,98553.43
2023-04-23T00:39:53.388Z,98554.02
2023-04-23T00:42:24.469Z,98550.01
2023-04-23T00:44:56.086Z,98546.70
2023-04-23T00:47:27.836Z,98544.77
2023-04-23T00:49:59.997Z,98544.64
2023-04-23T00:52:30.759Z,98544.08
2023-04-23T00:55:01.520Z,98538.77
2023-04-23T00:57:32.330Z,98542.69
2023-04-23T01:00:03.923Z,98536.34
2023-04-23T01:02:36.687Z,98538.79
2023-04-23T01:05:09.021Z,98541.21
2023-04-23T01:07:40.317Z,98539.42
2023-04-23T01:10:13.403Z,98542.81
2023-04-23T01:12:44.229Z,98540.86
2023-04-23T01:15:15.583Z,98539.73
2023-04-23T01:17:47.495Z,98541.98
2023-04-23T01:20:18.738Z,98540.86
2023-04-23T01:22:49.545Z,98534.62
2023-04-23T01:25:20.554Z,98531.14
2023-04-23T01:27:51.467Z,98524.47
2023-04-23T01:30:23.625Z,98529.71
2023-04-23T01:32:57.842Z,98527.33
2023-04-23T01:35:29.993Z,98527.06
2023-04-23T01:38:03.764Z,98525.51
2023-04-23T01:40:33.307Z,98526.04
2023-04-23T01:43:04.556Z,98523.52
2023-04-23T01:45:35.905Z,98525.02
2023-04-23T01:48:07.249Z,98520.37
2023-04-23T01:50:38.230Z,98525.30
2023-04-23T01:53:09.127Z,98522.55
2023-04-23T01:55:42.168Z,98524.79
2023-04-23T01:58:12.972Z,98525.96
2023-04-23T02:00:43.861Z,98521.42
2023-04-23T02:03:14.606Z,98517.64
2023-04-23T02:05:46.455Z,98520.55
2023-04-23T02:08:17.394Z,98513.93
2023-04-23T02:10:48.113Z,98512.77
2023-04-23T02:13:18.959Z,98512.97
2023-04-23T02:15:49.928Z,98506.73
2023-04-23T02:18:21.234Z,98506.38
2023-04-23T02:20:52.148Z,98510.29
2023-04-23T02:23:22.769Z,98508.23
2023-04-23T02:25:53.665Z,98503.92
2023-04-23T02:28:24.257Z,98503.66
2023-04-23T02:30:55.034Z,98506.37
2023-04-23T02:33:26.890Z,98507.08
2023-04-23T02:35:57.640Z,98505.36
2023-04-23T02:38:28.970Z,98500.33
2023-04-23T02:40:59.618Z,98500.00
2023-04-23T02:43:30.386Z,98497.91
2023-04-23T02:46:07.978Z,98501.39
2023-04-23T02:48:41.303Z,98506.06
2023-04-23T02:51:12.296Z,98502.02
2023-04-23T02:53:43.024Z,98503.36
2023-04-23T02:56:14.093Z,98502.40
2023-04-23T02:58:45.330Z,98502.77
2023-04-23T03:01:16.815Z,98497.86
2023-04-23T03:03:48.075Z,98501.50
2023-04-23T03:06:18.933Z,98496.83
2023-04-23T03:08:49.704Z,98495.04
2023-04-23T03:11:21.219Z,98496.66
2023-04-23T03:13:52.109Z,98495.83
2023-04-23T03:16:23.465Z,98497.59
2023-04-23T03:18:54.705Z,98494.21
2023-04-23T03:21:25.476Z,98493.14
2023-04-23T03:23:56.431Z,98490.52
2023-04-23T03:26:27.137Z,98489.70
2023-04-23T03:28:57.785Z,98485.48
2023-04-23T03:31:28.605Z,98485.59
2023-04-23T03:33:59.756Z,98486.78
2023-04-23T03:36:30.831Z,98489.33
2023-04-23T03:39:02.359Z,98488.73
2023-04-23T03:41:33.517Z,98492.02
2023-04-23T03:44:04.125Z,98486.61
2023-04-23T03:46:34.857Z,98486.17
2023-04-23T03:49:05.537Z,98480.61
2023-04-23T03:51:36.371Z,98481.77
2023-04-23T03:54:07.459Z,98479.52
2023-04-23T03:56:38.258Z,98483.70
2023-04-23T03:59:09.489Z,98482.90
2023-04-23T04:01:40.353Z,98480.44
2023-04-23T04:04:11.609Z,98479.02
2023-04-23T04:06:42.631Z,98480.64
2023-04-23T04:09:13.698Z,98479.48
2023-04-23T04:11:44.517Z,98477.86
2023-04-23T04:14:16.041Z,98476.80
2023-04-23T04:16:46.814Z,98477.83
2023-04-23T04:19:17.642Z,98486.52
2023-04-23T04:21:48.494Z,98482.54
2023-04-23T04:24:19.848Z,98482.66
2023-04-23T04:26:52.720Z,98484.00
2023-04-23T04:29:24.022Z,98486.65
2023-04-23T04:31:55.566Z,98494.02
2023-04-23T04:34:26.583Z,98501.72
2023-04-23T04:36:57.347Z,98508.77
2023-04-23T04:39:28.154Z,98516.02
2023-04-23T04:42:00.187Z,98508.84
2023-04-23T04:44:31.454Z,98499.63
2023-04-23T04:47:02.336Z,98506.98
2023-04-23T04:49:33.362Z,98511.02
2023-04-23T04:52:04.687Z,98508.53
2023-04-23T04:54:35.452Z,98510.39
2023-04-23T04:57:06.698Z,98521.03
2023-04-23T04:59:37.483Z,98517.39
2023-04-23T05:02:08.478Z,98520.02
2023-04-23T05:04:39.511Z,98516.16
2023-04-23T05:07:11.216Z,98518.45
2023-04-23T05:09:43.684Z,98519.73
2023-04-23T05:12:14.112Z,98516.23
2023-04-23T05:14:45.224Z,98519.56
2023-04-23T05:17:16.264Z,98524.13
2023-04-23T05:19:47.157Z,98526.94
2023-04-23T05:22:18.694Z,98533.13
2023-04-23T05:24:49.407Z,98528.86
2023-04-23T05:27:20.169Z,98527.36
2023-04-23T05:29:51.269Z,98526.20
2023-04-23T05:32:22.284Z,98525.44
2023-04-23T05:34:53.404Z,98528.20
2023-04-23T05:37:24.122Z,98525.21
2023-04-23T05:39:54.789Z,98527.10
2023-04-23T05:42:26.178Z,98521.44
2023-04-23T05:44:57.743Z,98523.67
2023-04-23T05:47:30.197Z,98531.04
2023-04-23T05:50:01.743Z,98532.66
2023-04-23T05:52:35.874Z,98535.55
2023-04-23T05:55:08.116Z,98533.46
2023-04-23T05:57:40.272Z,98532.84
2023-04-23T06:00:12.903Z,98529.79
2023-04-23T06:02:44.542Z,98528.02
2023-04-23T06:05:15.801Z,98530.42
2023-04-23T06:07:47.010Z,98526.56
2023-04-23T06:10:17.851Z,98526.86
2023-04-23T06:12:48.628Z,98525.24
2023-04-23T06:15:19.532Z,98524.81
2023-04-23T06:17:50.636Z,98531.98
2023-04-23T06:20:21.958Z,98535.62
2023-04-23T06:22:52.860Z,98529.73
2023-04-23T06:25:24.255Z,98529.73
2023-04-23T06:27:55.064Z,98519.88
2023-04-23T06:30:26.114Z,98525.14
2023-04-23T06:32:57.173Z,98524.28
2023-04-23T06:35:28.091Z,98518.98
2023-04-23T06:37:59.034Z,98514.59
2023-04-23T06:40:30.263Z,98513.61
2023-04-23T06:43:04.472Z,98515.32
2023-04-23T06:45:35.349Z,98510.98
2023-04-23T06:48:06.396Z,98508.23
2023-04-23T06:50:37.484Z,98502.89
2023-04-23T06:53:08.704Z,98502.23
2023-04-23T06:55:39.693Z,98511.02
2023-04-23T06:58:12.484Z,98512.71
2023-04-23T07:00:44.600Z,98511.58
2023-04-23T07:03:15.925Z,98508.27
2023-04-23T07:05:46.786Z,98509.37
2023-04-23T07:08:17.625Z,98504.83
2023-04-23T07:10:48.797Z,98500.97
2023-04-23T07:13:19.828Z,98507.01
2023-04-23T07:15:51.161Z,98513.54
2023-04-23T07:18:22.119Z,98515.52
2023-04-23T07:20:53.219Z,98515.06
2023-04-23T07:23:24.236Z,98512.95
2023-04-23T07:25:55.629Z,98518.98
2023-04-23T07:28:26.770Z,98520.07
2023-04-23T07:30:57.980Z,98521.10
2023-04-23T07:33:29.520Z,98518.51
2023-04-23T07:36:00.262Z,98521.30
2023-04-23T07:38:31.110Z,98528.30
2023-04-23T07:41:01.914Z,98528.92
2023-04-23T07:43:32.885Z,98531.77
2023-04-23T07:46:03.835Z,98525.54
2023-04-23T07:48:35.243Z,98526.67
2023-04-23T07:51:06.800Z,98526.23
2023-04-23T07:53:38.034Z,98528.48
2023-04-23T07:56:09.466Z,98528.46
2023-04-23T07:58:41.458Z,98529.25
2023-04-23T08:01:12.275Z,98523.58
2023-04-23T08:03:43.519Z,98522.92
2023-04-23T08:06:14.510Z,98519.27
2023-04-23T08:08:45.691Z,98521.75
2023-04-23T08:11:16.858Z,98524.19
2023-04-23T08:13:47.678Z,98525.77
2023-04-23T08:16:18.657Z,98522.89
2023-04-23T08:19:03.771Z,98521.83
2023-04-23T08:21:36.999Z,98520.53
2023-04-23T08:24:09.099Z,98522.39
2023-04-23T08:26:39.861Z,98520.17
2023-04-23T08:29:11.714Z,98520.53
2023-04-23T08:31:43.127Z,98523.59
2023-04-23T08:34:15.170Z,98523.88
2023-04-23T08:36:46.702Z,98521.70
2023-04-23T08:39:17.568Z,98526.30
2023-04-23T08:41:55.673Z,98523.71
2023-04-23T08:44:27.501Z,98526.23
2023-04-23T08:46:59.656Z,98523.09
2023-04-23T08:49:34.648Z,98519.93
2023-04-23T08:52:12.991Z,98521.34
2023-04-23T08:54:47.015Z,98518.05
2023-04-23T08:57:19.730Z,98524.75
2023-04-23T08:59:51.205Z,98525.77
2023-04-23T09:02:22.873Z,98519.64
2023-04-23T09:04:56.302Z,98518.38
2023-04-23T09:07:27.842Z,98518.48
2023-04-23T09:09:58.890Z,98514.56
2023-04-23T09:12:30.055Z,98515.95
2023-04-23T09:15:01.520Z,98512.81
2023-04-23T09:17:33.661Z,98512.70
2023-04-23T09:20:09.240Z,98511.84
2023-04-23T09:22:47.428Z,98513.77
2023-04-23T09:25:20.224Z,98511.35
2023-04-23T09:27:52.571Z,98511.89
2023-04-23T09:30:25.459Z,98511.71
2023-04-23T09:32:56.624Z,98512.41
2023-04-23T09:35:30.607Z,98513.44
2023-04-23T09:38:06.071Z,98509.69
2023-04-23T09:40:37.952Z,98507.37
2023-04-23T09:43:11.660Z,98504.19
2023-04-23T09:45:51.020Z,98503.67
2023-04-23T09:48:23.847Z,98496.21
2023-04-23T09:50:57.923Z,98492.95
2023-04-23T09:53:29.531Z,98499.53
2023-04-23T09:56:00.672Z,98495.64
2023-04-23T09:58:35.796Z,98494.74
2023-04-23T10:01:11.383Z,98495.40
2023-04-23T10:03:46.667Z,98497.25
2023-04-23T10:06:39.569Z,98496.95
2023-04-23T10:09:10.015Z,98500.63
2023-04-23T10:11:41.830Z,98497.30
2023-04-23T10:14:14.327Z,98496.34
2023-04-23T10:16:49.220Z,98500.98
2023-04-23T10:19:23.274Z,98502.64
2023-04-23T10:22:02.338Z,98497.68
2023-04-23T10:24:41.560Z,98497.48
2023-04-23T10:27:28.813Z,98499.56
2023-04-23T10:30:10.376Z,98494.63
2023-04-23T10:32:42.243Z,98487.14
2023-04-23T10:35:13.760Z,98489.42
2023-04-23T10:37:49.212Z,98488.55
2023-04-23T10:40:27.545Z,98490.39
2023-04-23T10:42:59.577Z,98487.41
2023-04-23T10:45:33.262Z,98488.70
2023-04-23T10:48:05.645Z,98492.16
2023-04-23T10:50:42.967Z,98492.88
2023-04-23T10:53:25.421Z,98494.91
2023-04-23T10:56:08.204Z,98492.45
2023-04-23T10:58:54.446Z,98494.91
2023-04-23T11:01:27.471Z,98492.52
2023-04-23T11:03:59.403Z,98491.52
2023-04-23T11:06:59.318Z,98493.04
2023-04-23T11:09:37.982Z,98489.96
2023-04-23T11:12:11.729Z,98493.34
2023-04-23T11:14:44.990Z,98487.61
2023-04-23T11:17:17.477Z,98488.54
2023-04-23T11:20:13.494Z,98487.65
2023-04-23T11:22:46.225Z,98486.67
2023-04-23T11:25:22.008Z,98485.36
2023-04-23T11:27:54.911Z,98484.78
2023-04-23T11:30:27.669Z,98483.11
2023-04-23T11:33:00.383Z,98476.01
2023-04-23T11:35:39.760Z,98479.34
2023-04-23T11:38:12.530Z,98478.29
2023-04-23T11:40:43.963Z,98478.77
2023-04-23T11:43:22.756Z,98482.42
2023-04-23T11:45:53.984Z,98480.15
2023-04-23T11:48:25.007Z,98481.44
2023-04-23T11:50:56.465Z,98477.86
2023-04-23T11:53:27.499Z,98480.59
2023-04-23T11:55:59.799Z,98475.94
2023-04-23T11:58:30.935Z,98475.64
2023-04-23T12:01:02.511Z,98472.16
2023-04-23T12:03:33.437Z,98477.27
2023-04-23T12:06:04.570Z,98476.17
2023-04-23T12:08:37.764Z,98474.98
2023-04-23T12:11:08.690Z,98474.31
2023-04-23T12:13:43.081Z,98470.23
2023-04-23T12:16:13.970Z,98472.62
2023-04-23T12:18:45.809Z,98469.80
2023-04-23T12:21:18.905Z,98471.51
2023-04-23T12:23:54.163Z,98470.64
2023-04-23T12:26:26.485Z,98468.71
2023-04-23T12:28:59.560Z,98469.05
2023-04-23T12:31:31.302Z,98470.25
2023-04-23T12:34:05.493Z,98469.78
2023-04-23T12:36:37.477Z,98472.47
2023-04-23T12:39:29.542Z,98472.48
2023-04-23T12:42:05.288Z,98477.02
2023-04-23T12:44:37.460Z,98471.70
2023-04-23T12:47:11.375Z,98472.57
2023-04-23T12:49:44.112Z,98471.67
2023-04-23T12:52:15.450Z,98469.72
2023-04-23T12:54:46.417Z,98473.00
2023-04-23T12:57:21.856Z,98469.13
2023-04-23T12:59:55.053Z,98469.79
2023-04-23T13:02:27.232Z,98467.29
2023-04-23T13:05:01.281Z,98467.35
2023-04-23T13:07:32.655Z,98468.70
2023-04-23T13:10:03.730Z,98468.90
2023-04-23T13:12:34.480Z,98468.67
2023-04-23T13:15:06.241Z,98467.67
2023-04-23T13:17:38.329Z,98465.77
2023-04-23T13:20:11.217Z,98464.73
2023-04-23T13:22:42.231Z,98463.08
2023-04-23T13:25:13.910Z,98465.21
2023-04-23T13:27:45.386Z,98463.08
2023-04-23T13:30:17.164Z,98467.36
2023-04-23T13:32:48.165Z,98463.12
2023-04-23T13:35:19.224Z,98465.05
2023-04-23T13:37:50.351Z,98463.00
2023-04-23T13:40:21.431Z,98457.23
2023-04-23T13:42:53.411Z,98454.77
2023-04-23T13:45:24.572Z,98452.98
2023-04-23T13:47:55.633Z,98449.17
2023-04-23T13:50:26.724Z,98445.95
2023-04-23T13:52:57.744Z,98444.19
2023-04-23T13:55:28.897Z,98441.20
2023-04-23T13:58:02.001Z,98439.81
2023-04-23T14:00:33.179Z,98436.48
2023-04-23T14:03:03.996Z,98439.79
2023-04-23T14:05:35.000Z,98434.96
2023-04-23T14:08:06.192Z,98435.73
2023-04-23T14:10:37.530Z,98433.58
2023-04-23T14:13:08.573Z,98435.56
2023-04-23T14:15:39.478Z,98437.52
2023-04-23T14:18:11.801Z,98438.98
2023-04-23T14:20:42.943Z,98439.81
2023-04-23T14:23:45.093Z,98440.34
2023-04-23T14:26:40.809Z,98445.69
2023-04-23T14:29:30.273Z,98441.86
2023-04-23T14:32:01.712Z,98441.03
2023-04-23T14:34:35.069Z,98440.64
2023-04-23T14:37:06.621Z,98444.89
2023-04-23T14:39:38.120Z,98442.34
2023-04-23T14:42:09.280Z,98440.44
2023-04-23T14:44:40.101Z,98438.00
2023-04-23T14:47:12.001Z,98439.42
2023-04-23T14:49:43.305Z,98440.27
2023-04-23T14:52:14.541Z,98439.80
2023-04-23T14:54:46.744Z,98440.64
2023-04-23T14:57:17.630Z,98436.62
2023-04-23T14:59:48.471Z,98439.60
2023-04-23T15:02:19.809Z,98434.80
2023-04-23T15:04:50.985Z,98431.85
2023-04-23T15:07:21.793Z,98427.01
2023-04-23T15:09:52.609Z,98426.52
2023-04-23T15:12:45.322Z,98418.83
2023-04-23T15:15:42.880Z,98413.40
2023-04-23T15:18:16.131Z,98413.73
2023-04-23T15:20:47.405Z,98414.71
2023-04-23T15:23:21.170Z,98414.88
2023-04-23T15:25:52.649Z,98412.91
2023-04-23T15:28:24.130Z,98404.86
2023-04-23T15:30:55.548Z,98397.20
2023-04-23T15:33:27.138Z,98391.43
2023-04-23T15:35:59.999Z,98386.20
2023-04-23T15:38:31.725Z,98384.86
2023-04-23T15:41:03.358Z,98383.44
2023-04-23T15:43:34.531Z,98384.02
2023-04-23T15:46:05.842Z,98382.69
2023-04-23T15:48:37.214Z,98379.98
2023-04-23T15:51:09.814Z,98375.82
2023-04-23T15:53:41.228Z,98374.02
2023-04-23T15:56:12.578Z,98374.34
2023-04-23T15:58:43.793Z,98374.08
2023-04-23T16:01:14.981Z,98374.84
2023-04-23T16:04:01.646Z,98376.98
2023-04-23T16:06:33.385Z,98371.54
2023-04-23T16:09:07.320Z,98367.40
2023-04-23T16:11:39.146Z,98365.93
2023-04-23T16:14:11.146Z,98366.42
2023-04-23T16:16:42.438Z,98362.17
2023-04-23T16:19:13.976Z,98361.46
2023-04-23T16:21:45.052Z,98356.30
2023-04-23T16:24:17.487Z,98352.41
2023-04-23T16:26:48.598Z,98349.05
2023-04-23T16:29:22.483Z,98349.55
2023-04-23T16:31:54.087Z,98351.36
2023-04-23T16:34:25.175Z,98350.25
2023-04-23T16:36:56.332Z,98346.57
2023-04-23T16:39:27.547Z,98350.89
2023-04-23T16:41:58.669Z,98352.61
2023-04-23T16:44:29.813Z,98355.68
2023-04-23T16:47:00.560Z,98350.17
2023-04-23T16:49:31.501Z,98344.98
2023-04-23T16:52:03.833Z,98341.66
2023-04-23T16:54:36.271Z,98336.77
2023-04-23T16:57:07.638Z,98335.28
2023-04-23T16:59:40.889Z,98332.66
2023-04-23T17:02:12.119Z,98327.11
2023-04-23T17:04:43.628Z,98325.55
2023-04-23T17:07:15.423Z,98325.22
2023-04-23T17:09:46.913Z,98321.89
2023-04-23T17:12:17.853Z,98317.35
2023-04-23T17:14:48.785Z,98313.02
2023-04-23T17:17:20.007Z,98309.17
2023-04-23T17:19:51.393Z,98306.95
2023-04-23T17:22:22.362Z,98304.80
2023-04-23T17:24:53.245Z,98299.23
2023-04-23T17:27:24.369Z,98301.42
2023-04-23T17:29:55.787Z,98301.59
2023-04-23T17:32:27.160Z,98298.15
2023-04-23T17:35:09.665Z,98296.20
2023-04-23T17:37:42.122Z,98294.88
2023-04-23T17:40:14.602Z,98291.59
2023-04-23T17:42:45.928Z,98290.94
2023-04-23T17:45:18.688Z,98286.69
2023-04-23T17:47:49.572Z,98287.09
2023-04-23T17:50:21.610Z,98282.07
2023-04-23T17:52:53.972Z,98280.86
2023-04-23T17:55:25.184Z,98281.04
2023-04-23T17:57:56.108Z,98281.16
2023-04-23T18:00:28.759Z,98276.08
2023-04-23T18:03:00.524Z,98275.60
2023-04-23T18:05:31.588Z,98278.63
2023-04-23T18:08:03.303Z,98277.33
2023-04-23T18:10:34.653Z,98272.05
2023-04-23T18:13:09.233Z,98268.79
2023-04-23T18:15:41.712Z,98264.27
2023-04-23T18:18:13.142Z,98260.62
2023-04-23T18:20:45.354Z,98255.16
2023-04-23T18:23:16.832Z,98256.30
2023-04-23T18:25:48.274Z,98258.79
2023-04-23T18:28:19.190Z,98254.93
2023-04-23T18:30:50.860Z,98264.89
2023-04-23T18:33:38.544Z,98266.88
2023-04-23T18:36:27.391Z,98268.36
2023-04-23T18:38:58.730Z,98269.36
2023-04-23T18:41:31.018Z,98278.09
2023-04-23T18:44:02.661Z,98279.25
2023-04-23T18:46:34.616Z,98280.98
2023-04-23T18:49:28.844Z,98275.63
2023-04-23T18:51:59.895Z,98275.13
2023-04-23T18:54:30.944Z,98269.80
2023-04-23T18:57:02.652Z,98268.14
2023-04-23T18:59:37.480Z,98266.73
2023-04-23T19:02:09.700Z,98271.37
2023-04-23T19:04:41.068Z,98264.61
2023-04-23T19:07:12.305Z,98269.29
2023-04-23T19:09:43.962Z,98265.02
2023-04-23T19:12:15.267Z,98263.67
2023-04-23T19:14:47.409Z,98262.40
2023-04-23T19:17:19.127Z,98258.20
2023-04-23T19:19:50.729Z,98255.92
2023-04-23T19:22:24.065Z,98252.83
2023-04-23T19:24:55.158Z,98251.69
2023-04-23T19:27:26.363Z,98249.95
2023-04-23T19:29:57.452Z,98249.18
2023-04-23T19:32:29.354Z,98250.27
2023-04-23T19:35:00.526Z,98245.91
2023-04-23T19:37:32.290Z,98250.08
2023-04-23T19:40:03.856Z,98247.42
2023-04-23T19:42:35.056Z,98248.21
2023-04-23T19:45:06.534Z,98244.65
2023-04-23T19:47:40.294Z,98243.23
2023-04-23T19:50:13.955Z,98237.48
2023-04-23T19:52:45.105Z,98238.34
2023-04-23T19:55:18.160Z,98239.64
2023-04-23T19:57:48.888Z,98239.23
2023-04-23T20:00:20.637Z,98236.05
2023-04-23T20:02:52.365Z,98236.38
2023-04-23T20:05:23.552Z,98235.79
2023-04-23T20:07:54.660Z,98239.34
2023-04-23T20:10:30.482Z,98239.27
2023-04-23T20:13:01.284Z,98242.86
2023-04-23T20:15:32.703Z,98235.74
2023-04-23T20:18:03.841Z,98226.64
2023-04-23T20:20:35.884Z,98221.67
2023-04-23T20:23:07.116Z,98221.74
2023-04-23T20:25:38.578Z,98218.53
2023-04-23T20:28:11.596Z,98211.39
2023-04-23T20:30:43.323Z,98208.29
2023-04-23T20:33:18.788Z,98202.55
2023-04-23T20:35:49.794Z,98195.94
2023-04-23T20:38:21.428Z,98191.59
2023-04-23T20:40:54.986Z,98186.44
2023-04-23T20:43:27.000Z,98182.94
2023-04-23T20:45:58.149Z,98177.02
2023-04-23T20:48:30.569Z,98172.34
2023-04-23T20:51:02.531Z,98169.69
2023-04-23T20:53:33.662Z,98161.20
2023-04-23T20:56:04.508Z,98151.84
2023-04-23T20:58:36.589Z,98152.07
2023-04-23T21:01:08.292Z,98151.71
2023-04-23T21:03:40.226Z,98145.08
2023-04-23T21:06:13.396Z,98139.11
2023-04-23T21:08:45.045Z,98134.76
2023-04-23T21:11:18.237Z,98133.90
2023-04-23T21:13:49.611Z,98136.54
2023-04-23T21:16:20.857Z,98133.04
2023-04-23T21:18:51.832Z,98133.08
2023-04-23T21:21:27.134Z,98132.89
2023-04-23T21:23:59.782Z,98133.02
2023-04-23T21:26:31.553Z,98130.91
2023-04-23T21:29:02.539Z,98130.42
2023-04-23T21:31:48.264Z,98128.91
2023-04-23T21:34:20.346Z,98127.14
2023-04-23T21:36:51.431Z,98122.86
2023-04-23T21:39:22.369Z,98124.95
2023-04-23T21:41:53.296Z,98119.48
2023-04-23T21:44:24.234Z,98112.05
2023-04-23T21:46:55.012Z,98106.86
2023-04-23T21:49:26.150Z,98110.23
2023-04-23T21:51:57.050Z,98109.31
2023-04-23T21:54:27.902Z,98102.23
2023-04-23T21:56:59.171Z,98101.53
2023-04-23T21:59:30.029Z,98098.09
2023-04-23T22:02:00.875Z,98099.45
2023-04-23T22:04:31.790Z,98096.91
2023-04-23T22:07:05.607Z,98096.41
2023-04-23T22:09:34.748Z,98091.70
2023-04-23T22:12:06.038Z,98095.61
2023-04-23T22:14:36.795Z,98101.78
2023-04-23T22:17:09.144Z,98110.13
2023-04-23T22:19:40.055Z,98107.34
2023-04-23T22:22:10.935Z,98103.86
2023-04-23T22:24:41.658Z,98097.54
2023-04-23T22:27:12.515Z,98091.89
2023-04-23T22:29:43.413Z,98089.68
2023-04-23T22:32:14.362Z,98091.11
2023-04-23T22:34:45.470Z,98086.41
2023-04-23T22:37:16.467Z,98087.44
2023-04-23T22:39:47.163Z,98085.06
2023-04-23T22:42:17.795Z,98078.83
2023-04-23T22:44:49.633Z,98078.03
2023-04-23T22:47:20.473Z,98071.64
2023-04-23T22:49:51.346Z,98070.80
2023-04-23T22:52:22.022Z,98069.64
2023-04-23T22:54:54.985Z,98064.96
2023-04-23T22:57:25.993Z,98063.09
2023-04-23T22:59:56.734Z,98061.65
2023-04-23T23:02:27.569Z,98055.91
2023-04-23T23:04:58.292Z,98056.08
2023-04-23T23:07:29.035Z,98054.82
2023-04-23T23:09:59.713Z,98054.27
2023-04-23T23:12:30.446Z,98051.19
2023-04-23T23:15:02.085Z,98048.61
2023-04-23T23:17:33.000Z,98052.63
2023-04-23T23:20:06.616Z,98052.77
2023-04-23T23:22:37.548Z,98053.71
2023-04-23T23:25:10.134Z,98051.47
2023-04-23T23:27:41.076Z,98048.02
2023-04-23T23:30:13.023Z,98047.71
2023-04-23T23:32:43.715Z,98044.18
2023-04-23T23:35:14.626Z,98037.41
2023-04-23T23:37:45.566Z,98028.95
2023-04-23T23:40:16.424Z,98016.98
2023-04-23T23:42:47.135Z,98015.39
2023-04-23T23:45:18.096Z,98009.17
2023-04-23T23:47:48.967Z,98005.92
2023-04-23T23:50:19.869Z,98001.23
2023-04-23T23:52:50.858Z,97995.31
2023-04-23T23:55:22.065Z,97990.38
2023-04-23T23:57:52.907Z,97990.27
